Página principal
METAR-TAF:

METAR-TAF

Aeroportos :

Aeroporto de Gibraltar

Gibraltar, Gibraltar

latitude: 36-09N, longitude: 005-21W, altura: 5 m

Observação actual do tempo

O boletim foi feito há 50 minutos, às 22:50 UTC
Vento 13 kt de oeste
Temperatura 12°C
Humidade 54%
Pressão 1011 hPa
Visibilidade 10 km ou mais

METAR: LXGB 152250Z AUTO 27013KT 9999 // FEW150/// 12/03 Q1011

Hora: 00:40 (23:40 UTC)

Previsão

O boletim foi feito há 7 horas e 10 minutos, às 16:30 UTC
Previsão válida de 15 às 18 UTC a 15 às 23 UTC
Vento 17 kt de oeste com rajadas de 27 kt
Visibilidade 10 km ou mais
Poucas nuvensa uma altura de 4000 ft
Tornando-se
de 15 às 18 UTC a 15 às 21 UTC
Vento 14 kt de oes-noroeste

TAF: LXGB 151630Z 1518/1523 28017G27KT 9999 FEW040 BECMG 1518/1521 29014KT

Observações e previsões do tempo de mais de 4000 aeroportos (mensagens METAR e TAF).

As estações disponíveis são os pontos amarelos e vermelhos sobre o mapa.

Mova o rato sobre o mapa para ver o nome da estação.

Depois clique no ponto para visualizar as observações e previsões meteorológicas.

Para alterar o mapa : clique nos botões verdes com uma cruz preta para aumentar o zoom; no botão verde com uma pitada de zoom; ou nas setas verdes para mapas adjacentes.


METAR-TAF: